Latest Weather Observations for Eucla

IDW60801

Issued at 3:43 pm WST Wednesday 10 August 2022 (issued every 10 minutes, with the page automatically refreshed every 10 minutes)

About weather observations | Map of weather stations | Latest weather observations for WA | Other Formats
Station Details ID: 011003 Name: EUCLA Lat: -31.68 Lon: 128.90 Height: 93.1 m
Data from the previous 72 hours. | See also: Recent months at Eucla
Date/Time
WST
Temp
°C
App
Temp
°C
Dew
Point
°C
Rel
Hum
%
Delta-T
°C
Wind Press
QNH
hPa
Press
MSL
hPa
Rain since
9am
mm
Dir  Spd
km/h
Gust
km/h
Spd
kts
Gust
kts
10/03:30pm 16.0 9.0 1.7 38 6.4 WNW 28 41 15 22 1012.6 1012.6 0.0
10/03:00pm 15.2 8.8 1.0 38 6.2 W 24 43 13 23 1012.5 1012.5 0.0
10/02:30pm 15.7 8.6 1.4 38 6.3 WNW 28 39 15 21 1012.3 1012.3 0.0
10/02:10pm 15.8 8.7 1.5 38 6.3 WNW 28 48 15 26 1012.3 1012.3 0.0
10/02:00pm 16.0 9.4 2.1 39 6.2 WNW 26 39 14 21 1012.4 1012.4 0.0
10/01:33pm 16.4 9.2 2.8 40 6.2 WNW 30 48 16 26 1012.4 1012.4 0.0
10/01:30pm 16.4 8.7 2.4 39 6.3 WNW 32 48 17 26 1012.4 1012.4 0.0
10/01:18pm 16.2 8.9 2.6 40 6.2 WNW 30 50 16 27 1012.5 1012.5 0.0
10/01:00pm 15.1 8.2 2.6 43 5.6 WNW 28 43 15 23 1012.5 1012.5 0.0
10/12:30pm 14.4 7.6 2.9 46 5.2 WNW 28 44 15 24 1012.9 1012.9 0.0
10/12:00pm 14.9 7.4 3.4 46 5.2 W 32 50 17 27 1013.1 1013.1 0.0
10/11:54am 14.9 7.8 3.7 47 5.1 WNW 30 48 16 26 1013.1 1013.1 0.0
10/11:30am 14.7 7.4 4.7 51 4.7 WNW 32 43 17 23 1013.2 1013.2 0.0
10/11:04am 14.1 7.7 5.2 55 4.2 W 28 46 15 25 1013.3 1013.3 0.0
10/11:00am 13.9 7.4 4.5 53 4.4 W 28 43 15 23 1013.5 1013.5 0.0
10/10:37am 13.3 6.9 5.0 57 3.9 WNW 28 46 15 25 1013.6 1013.6 0.0
10/10:30am 13.2 6.0 5.1 58 3.8 WNW 32 46 17 25 1013.7 1013.7 0.0
10/10:00am 11.9 5.1 5.1 63 3.1 WNW 30 44 16 24 1013.7 1013.7 0.0
10/09:39am 11.7 4.9 5.3 65 3.0 WNW 30 48 16 26 1013.7 1013.7 0.0
10/09:30am 11.3 4.5 5.2 66 2.8 WNW 30 44 16 24 1013.6 1013.6 0.0
10/09:00am 10.9 4.5 5.4 69 2.5 WNW 28 46 15 25 1013.6 1013.6 2.2
10/08:30am 10.4 3.5 4.8 68 2.5 WNW 30 48 16 26 1013.6 1013.6 2.2
10/08:00am 9.5 2.9 4.3 70 2.3 WNW 28 48 15 26 1013.4 1013.4 2.2
10/07:59am 9.5 3.0 4.5 71 2.2 WNW 28 48 15 26 1013.4 1013.4 2.2
10/07:30am 8.7 2.4 3.9 72 2.1 NW 26 37 14 20 1013.1 1013.1 2.2
10/07:00am 8.1 2.9 3.6 73 1.9 NW 20 35 11 19 1012.8 1012.8 2.2
10/06:30am 7.3 1.7 3.2 75 1.7 NW 22 33 12 18 1012.4 1012.4 2.2
10/06:00am 7.0 1.9 3.3 77 1.6 NW 19 30 10 16 1012.1 1012.1 2.2
10/05:30am 7.1 2.0 3.3 77 1.6 NW 19 30 10 16 1011.9 1011.9 2.2
10/05:00am 7.3 2.6 3.4 76 1.7 NW 17 26 9 14 1011.4 1011.4 2.2
10/04:30am 7.3 2.7 3.5 77 1.6 NW 17 26 9 14 1011.2 1011.2 2.2
10/04:00am 7.2 3.0 3.8 79 1.5 NW 15 19 8 10 1010.9 1010.9 2.2
10/03:30am 7.4 2.9 4.2 80 1.4 NW 17 20 9 11 1010.6 1010.6 2.2
10/03:00am 7.2 3.2 4.9 85 1.0 NW 15 19 8 10 1010.6 1010.6 2.2
10/02:30am 7.3 3.4 5.3 87 0.9 NW 15 17 8 9 1010.4 1010.4 2.2
10/02:00am 7.2 3.8 5.7 90 0.7 NNW 13 17 7 9 1010.3 1010.2 2.2
10/01:30am 8.6 5.2 6.1 84 1.1 NW 13 19 7 10 1010.1 1010.0 2.2
10/01:00am 9.2 6.3 6.3 82 1.3 WNW 11 15 6 8 1010.2 1010.1 2.2
10/12:30am 10.0 6.8 6.9 81 1.5 WNW 13 17 7 9 1010.0 1009.9 2.2
10/12:00am 10.9 7.5 7.8 81 1.5 WNW 15 20 8 11 1009.9 1009.8 2.2
 
Date/Time
WST
Temp
°C
App
Temp
°C
Dew
Point
°C
Rel
Hum
%
Delta-T
°C
Wind Press
QNH
hPa
Press
MSL
hPa
Rain since
9am
mm
Dir  Spd
km/h
Gust
km/h
Spd
kts
Gust
kts
09/11:30pm 11.3 8.2 9.0 86 1.2 NW 15 19 8 10 1009.9 1009.8 2.2
09/11:00pm 11.6 8.7 9.5 87 1.1 NW 15 22 8 12 1009.7 1009.6 2.2
09/10:30pm 11.8 9.1 10.2 90 0.8 NW 15 20 8 11 1009.8 1009.7 2.2
09/10:00pm 11.8 9.1 10.2 90 0.8 NW 15 19 8 10 1009.9 1009.8 2.2
09/09:30pm 12.2 9.0 9.9 86 1.2 NW 17 26 9 14 1009.5 1009.4 2.0
09/09:00pm 12.5 9.7 9.9 84 1.3 W 15 24 8 13 1009.6 1009.5 0.6
09/08:30pm 14.5 11.1 9.1 70 2.8 W 17 24 9 13 1009.7 1009.6 0.0
09/08:00pm 14.5 11.4 8.9 69 2.9 W 15 22 8 12 1009.8 1009.7 0.0
09/07:30pm 14.2 10.4 3.9 50 4.7 WNW 13 22 7 12 1008.1 1008.0 0.0
09/07:00pm 14.9 9.8 4.0 48 5.0 N 20 30 11 16 1007.2 1007.2 0.0
09/06:30pm 15.2 10.0 3.4 45 5.4 N 20 30 11 16 1006.7 1006.7 0.0
09/06:00pm 15.9 10.1 2.3 40 6.1 N 22 35 12 19 1006.1 1006.1 0.0
09/05:30pm 16.8 10.3 2.4 38 6.5 N 26 37 14 20 1005.5 1005.5 0.0
09/05:00pm 17.8 11.5 1.7 34 7.3 N 24 37 13 20 1005.0 1005.0 0.0
09/04:30pm 18.8 11.3 0.9 30 8.0 N 30 44 16 24 1004.9 1004.9 0.0
09/04:00pm 19.9 11.7 0.4 27 8.8 N 33 52 18 28 1004.5 1004.5 0.0
09/03:30pm 21.4 13.2 0.6 25 9.4 N 33 52 18 28 1004.4 1004.4 0.0
09/03:04pm 21.5 13.2 2.2 28 9.1 N 35 54 19 29 1004.7 1004.7 0.0
09/03:00pm 21.4 13.1 2.2 28 9.0 N 35 52 19 28 1004.6 1004.6 0.0
09/02:30pm 20.8 13.6 3.1 31 8.4 N 30 48 16 26 1005.1 1005.1 0.0
09/02:00pm 20.0 13.1 2.8 32 8.1 N 28 41 15 22 1005.2 1005.2 0.0
09/01:30pm 19.0 11.0 3.6 36 7.3 NNE 35 54 19 29 1005.2 1005.2 0.0
09/01:01pm 17.3 9.7 3.9 41 6.3 NNE 33 52 18 28 1005.3 1005.3 0.0
09/01:00pm 17.3 9.9 3.9 41 6.3 NNE 32 46 17 25 1005.3 1005.3 0.0
09/12:30pm 17.0 10.0 4.3 43 6.0 NNE 30 50 16 27 1006.1 1006.1 0.0
09/12:00pm 16.4 8.9 4.4 45 5.7 NNE 33 54 18 29 1006.9 1006.9 0.0
09/11:33am 16.2 9.3 4.6 46 5.5 NNE 30 48 16 26 1008.1 1008.0 0.0
09/11:30am 16.3 9.0 4.7 46 5.5 NNE 32 48 17 26 1008.2 1008.1 0.0
09/11:06am 16.3 9.1 5.0 47 5.4 NNE 32 50 17 27 1008.8 1008.7 0.0
09/11:00am 16.4 9.6 5.1 47 5.4 NNE 30 46 16 25 1008.8 1008.7 0.0
09/10:30am 16.0 9.2 5.3 49 5.1 NNE 30 44 16 24 1009.7 1009.6 0.0
09/10:00am 15.3 9.4 5.8 53 4.6 NNE 26 37 14 20 1010.0 1009.9 0.0
09/09:30am 14.1 8.1 5.5 56 4.1 NNE 26 37 14 20 1010.4 1010.4 0.0
09/09:00am 12.1 8.1 6.6 69 2.6 N 17 28 9 15 1011.1 1011.1 0.4
09/08:30am 11.9 5.6 5.8 66 2.9 NNE 28 39 15 21 1011.5 1011.5 0.4
09/08:00am 13.7 7.1 2.0 45 5.1 NNE 26 37 14 20 1011.8 1011.8 0.2
09/07:30am 12.5 6.8 2.7 51 4.3 NNE 22 33 12 18 1012.1 1012.1 0.2
09/07:00am 11.0 3.6 3.8 61 3.2 N 32 44 17 24 1012.5 1012.5 0.0
09/06:30am 13.5 4.5 -2.4 33 6.3 NNE 35 50 19 27 1011.5 1011.5 0.0
09/06:21am 13.0 5.4 -2.1 35 6.0 NNE 28 50 15 27 1011.5 1011.5 0.0
09/06:00am 12.5 4.1 -2.5 35 5.9 NNE 32 46 17 25 1011.5 1011.5 0.0
09/05:30am 12.3 4.6 -2.7 35 5.8 NNE 28 46 15 25 1011.7 1011.7 0.0
09/05:00am 11.8 4.1 -3.1 35 5.7 NNE 28 37 15 20 1011.6 1011.6 0.0
09/04:30am 11.6 3.9 -2.9 36 5.6 NNE 28 37 15 20 1011.5 1011.5 0.0
09/04:00am 11.4 4.1 -3.1 36 5.5 NNE 26 37 14 20 1011.6 1011.6 0.0
09/03:30am 10.8 3.4 -3.3 37 5.3 NNE 26 35 14 19 1011.9 1011.9 0.0
09/03:00am 10.9 3.9 -3.6 36 5.4 NNE 24 33 13 18 1012.1 1012.1 0.0
09/02:30am 11.1 4.1 -3.4 36 5.5 NNE 24 35 13 19 1012.9 1012.9 0.0
09/02:00am 11.7 4.7 -3.6 34 5.8 NNE 24 33 13 18 1013.3 1013.3 0.0
09/01:30am 12.6 5.6 -3.6 32 6.2 NNE 24 35 13 19 1013.7 1013.7 0.0
09/01:00am 13.1 5.6 -4.1 30 6.5 NNE 26 35 14 19 1014.1 1014.1 0.0
09/12:30am 13.8 6.4 -3.9 29 6.8 NNE 26 35 14 19 1014.5 1014.5 0.0
09/12:00am 14.3 6.5 -3.9 28 7.0 NNE 28 39 15 21 1014.5 1014.5 0.0
 
Date/Time
WST
Temp
°C
App
Temp
°C
Dew
Point
°C
Rel
Hum
%
Delta-T
°C
Wind Press
QNH
hPa
Press
MSL
hPa
Rain since
9am
mm
Dir  Spd
km/h
Gust
km/h
Spd
kts
Gust
kts
08/11:30pm 13.9 7.2 -4.3 28 6.9 NNE 22 32 12 17 1014.8 1014.8 0.0
08/11:00pm 14.2 7.5 -4.0 28 7.0 NNE 22 32 12 17 1015.3 1015.3 0.0
08/10:30pm 14.5 8.2 -3.8 28 7.1 NNE 20 30 11 16 1015.4 1015.4 0.0
08/10:00pm 12.9 7.1 -4.2 30 6.5 NNE 17 28 9 15 1015.9 1015.9 0.0
08/09:30pm 13.3 7.5 -4.3 29 6.7 NNE 17 24 9 13 1016.2 1016.2 0.0
08/09:00pm 13.1 7.8 -3.6 31 6.4 NNE 15 20 8 11 1016.3 1016.3 0.0
08/08:30pm 13.3 8.2 -2.2 34 6.2 NNE 15 24 8 13 1016.4 1016.4 0.0
08/08:00pm 13.6 8.3 -0.8 37 5.9 NE 17 20 9 11 1016.4 1016.4 0.0
08/07:30pm 14.2 9.4 0.1 38 5.9 NE 15 20 8 11 1016.6 1016.6 0.0
08/07:00pm 15.5 10.9 -0.7 33 6.8 ENE 13 19 7 10 1016.7 1016.7 0.0
08/06:30pm 16.8 11.4 -1.3 29 7.6 ENE 17 26 9 14 1016.8 1016.8 0.0
08/06:00pm 16.9 12.1 0.1 32 7.3 ENE 15 22 8 12 1016.7 1016.7 0.0
08/05:30pm 17.2 12.0 -0.1 31 7.5 E 17 22 9 12 1016.5 1016.5 0.0
08/05:00pm 17.6 12.7 -0.2 30 7.7 E 15 20 8 11 1016.5 1016.5 0.0
08/04:30pm 18.9 14.2 1.0 30 8.0 E 15 22 8 12 1016.7 1016.7 0.0
08/04:00pm 20.0 16.0 0.5 27 8.7 ESE 11 19 6 10 1016.6 1016.6 0.0
08/03:30pm 21.0 17.8 3.2 31 8.5 NNW 9 13 5 7 1016.3 1016.3 0.0
08/03:00pm 24.4 19.3 -4.8 14 12.2 NNW 13 24 7 13 1016.4 1016.4 0.0
08/02:30pm 24.4 19.0 -4.8 14 12.3 NW 15 22 8 12 1016.6 1016.6 0.0
08/02:00pm 24.4 19.1 -3.9 15 12.1 N 15 24 8 13 1016.8 1016.8 0.0
08/01:30pm 24.1 18.4 -4.1 15 12.0 NNW 17 28 9 15 1016.9 1016.9 0.0
08/01:00pm 24.5 18.8 -3.8 15 12.1 NNW 17 28 9 15 1017.1 1017.1 0.0
08/12:30pm 24.2 19.0 -2.4 17 11.7 NNW 15 22 8 12 1017.6 1017.6 0.0
08/12:00pm 23.3 17.8 -2.3 18 11.1 NNW 17 28 9 15 1018.1 1018.1 0.0
08/11:30am 22.5 16.7 -1.6 20 10.6 NNW 19 26 10 14 1018.7 1018.7 0.0
08/11:00am 21.9 16.2 -0.8 22 10.0 NNW 19 28 10 15 1018.9 1018.9 0.0
08/10:30am 20.6 14.7 -0.7 24 9.4 NNW 20 28 11 15 1019.4 1019.3 0.0
08/10:00am 19.6 13.4 -0.4 26 8.7 N 22 30 12 16 1019.8 1019.8 0.0
08/09:30am 18.4 12.2 -0.4 28 8.2 NNW 22 30 12 16 1020.0 1020.0 0.0
08/09:00am 16.4 9.7 -0.8 31 7.2 N 24 32 13 17 1020.0 1020.0 0.0
08/08:30am 15.0 9.1 -0.7 34 6.6 NNW 20 32 11 17 1020.1 1020.1 0.0
08/08:00am 13.1 7.2 -0.9 38 5.7 N 20 28 11 15 1020.0 1020.0 0.0
08/07:30am 11.4 5.7 -0.7 43 4.9 N 19 26 10 14 1019.8 1019.8 0.0
08/07:00am 9.2 3.4 -1.2 48 4.0 N 19 24 10 13 1019.6 1019.6 0.0
08/06:30am 8.4 2.6 -1.4 50 3.8 NNW 19 26 10 14 1019.6 1019.6 0.0
08/06:00am 8.1 2.2 -1.1 52 3.5 NNW 20 28 11 15 1019.4 1019.3 0.0
08/05:30am 7.9 1.6 -0.8 54 3.4 NNW 22 28 12 15 1019.2 1019.1 0.0
08/05:00am 6.7 0.8 -0.5 60 2.8 NNW 20 28 11 15 1019.2 1019.1 0.0
08/04:30am 6.7 1.0 -0.7 59 2.8 N 19 26 10 14 1018.7 1018.7 0.0
08/04:00am 7.0 1.3 -0.7 58 3.0 N 19 26 10 14 1018.5 1018.5 0.0
08/03:30am 7.6 1.9 -0.4 57 3.1 N 19 24 10 13 1018.5 1018.5 0.0
08/03:00am 7.8 2.0 -0.2 57 3.1 N 20 26 11 14 1018.3 1018.3 0.0
08/02:30am 7.8 2.0 -0.2 57 3.1 N 20 26 11 14 1018.4 1018.4 0.0
08/02:00am 8.2 2.6 0.0 56 3.2 N 19 28 10 15 1018.5 1018.5 0.0
08/01:30am 8.3 2.7 0.1 56 3.3 N 19 24 10 13 1018.6 1018.6 0.0
08/01:00am 8.8 3.0 0.0 54 3.5 N 20 28 11 15 1018.8 1018.8 0.0
08/12:30am 8.8 3.3 0.3 55 3.4 N 19 24 10 13 1019.2 1019.1 0.0
08/12:00am 9.2 4.0 0.4 54 3.5 N 17 20 9 11 1019.5 1019.5 0.0
 
Date/Time
WST
Temp
°C
App
Temp
°C
Dew
Point
°C
Rel
Hum
%
Delta-T
°C
Wind Press
QNH
hPa
Press
MSL
hPa
Rain since
9am
mm
Dir  Spd
km/h
Gust
km/h
Spd
kts
Gust
kts
07/11:30pm 9.2 4.0 0.1 53 3.7 N 17 22 9 12 1019.7 1019.7 0.0
07/11:00pm 9.2 4.0 0.4 54 3.5 N 17 20 9 11 1019.8 1019.8 0.0
07/10:30pm 9.1 3.9 0.3 54 3.5 N 17 19 9 10 1019.9 1019.9 0.0
07/10:00pm 8.7 3.9 0.4 56 3.3 N 15 17 8 9 1019.8 1019.8 0.0
07/09:30pm 9.0 4.2 0.5 55 3.4 N 15 15 8 8 1019.8 1019.8 0.0
07/09:00pm 9.2 4.8 0.4 54 3.5 N 13 15 7 8 1019.8 1019.8 0.0
07/08:30pm 9.9 5.5 0.3 51 3.9 NNE 13 15 7 8 1019.5 1019.5 0.0
07/08:00pm 10.5 6.1 0.3 49 4.2 NNE 13 15 7 8 1019.3 1019.2 0.0
07/07:30pm 11.2 6.8 0.3 47 4.5 NNE 13 15 7 8 1019.2 1019.1 0.0
07/07:00pm 11.6 7.2 0.1 45 4.7 NNE 13 15 7 8 1019.2 1019.1 0.0
07/06:30pm 12.5 8.0 0.0 42 5.2 NNE 13 13 7 7 1018.9 1018.9 0.0
07/06:00pm 13.1 8.6 -0.2 40 5.5 NNE 13 15 7 8 1018.8 1018.8 0.0
07/05:30pm 13.9 9.8 -0.2 38 5.9 NNE 11 13 6 7 1018.5 1018.5 0.0
07/05:00pm 15.7 11.9 -0.5 33 6.8 N 9 11 5 6 1018.4 1018.4 0.0
07/04:30pm 17.8 13.7 -0.5 29 7.9 N 11 15 6 8 1018.4 1018.4 0.0
07/04:00pm 18.9 14.1 0.0 28 8.3 NNW 15 24 8 13 1018.4 1018.4 0.0

Other formats

Comma delimited format used in spreadsheet applications
http://www.bom.gov.au/fwo/IDW60801/IDW60801.94647.axf

JavaScript Object Notation format (JSON) in row-major order
http://www.bom.gov.au/fwo/IDW60801/IDW60801.94647.json

Data quality

Most of these data are generated automatically and are frequently updated. Quality checks on data are not normally performed. It is possible for incorrect values to appear. Refer to information at About Latest Weather Observations and please check the disclaimer before using these data.